Flight Track Log - Related Links

Times and Time Zones

All times are in EDT time to prevent confusion due to time zone crossing. See the PDT4314 flight status page for this flight to view local times or setup timezone preferences in your user account.

Time Position Orientation Groundspeed Altitude Reporting Facility
EDT Latitude Longitude Course Direction KTS MPH feet Rate Location/Type
Mon 04:51:34 PM 39.8833 -75.2000 37° Northeast 114 131 700  Level Philadelphia TRACON
Mon 04:52:05 PM 39.9000 -75.1833 37° Northeast 135 155 1,500 1,375 Climbing Philadelphia TRACON
Mon 04:53:10 PM 39.9333 -75.1833 360° North 147 169 2,900 1,344 Climbing Philadelphia TRACON
Mon 04:54:10 PM 39.9833 -75.2000 346° North 138 159 4,300 1,339 Climbing Philadelphia TRACON
Mon 04:55:11 PM 40.0167 -75.2167 339° North 142 163 5,600 1,289 Climbing Philadelphia TRACON
Mon 04:56:11 PM 40.0500 -75.2333 339° North 135 155 6,900 1,350 Climbing Philadelphia TRACON
Mon 04:57:11 PM 40.0667 -75.2833 294° West 135 155 8,300 1,050 Climbing Philadelphia TRACON
Mon 04:58:11 PM 40.0833 -75.3167 303° West 159 183 9,000 368 Climbing Philadelphia TRACON
Mon 04:59:05 PM 40.1167 -75.3667 311° West 196 226 9,000  Level Philadelphia TRACON
Mon 04:59:48 PM 40.1331 -75.4053 299° West 201 231 9,000 173 Level New York Center
Mon 05:00:49 PM 40.1700 -75.4675 308° West 218 251 9,300 814 Climbing New York Center
Mon 05:01:46 PM 40.1933 -75.5125 304° West 190 219 10,600 1,322 Climbing New York Center
Mon 05:02:47 PM 40.2247 -75.5636 309° West 165 190 11,900 694 Climbing New York Center
Mon 05:03:47 PM 40.2581 -75.6122 312° West 165 190 12,000 694 Climbing New York Center
Mon 05:04:48 PM 40.2875 -75.6578 310° West 179 206 13,300 992 Climbing New York Center
Mon 05:05:48 PM 40.3189 -75.7036 312° West 173 199 14,000 356 Climbing New York Center
Mon 05:06:46 PM 40.3539 -75.7633 308° West 178 205 14,000  Level New York Center
Mon 05:07:47 PM 40.3931 -75.8206 312° West 198 228 14,000  Level New York Center
Mon 05:08:48 PM 40.4322 -75.8781 312° West 211 243 14,000  Level New York Center
Mon 05:09:48 PM 40.4714 -75.9411 309° West 211 243 14,000  Level New York Center
Mon 05:10:49 PM 40.5125 -76.0014 312° West 211 243 14,000  Level New York Center
Mon 05:11:46 PM 40.5558 -76.0539 317° Northwest 211 243 14,000  Level New York Center
Mon 05:12:46 PM 40.6061 -76.0933 329° Northwest 211 243 14,000  Level New York Center
Mon 05:13:47 PM 40.6569 -76.1247 335° Northwest 211 243 14,000  Level New York Center
Mon 05:14:47 PM 40.7228 -76.1408 349° North 216 249 14,000  Level New York Center
Mon 05:15:48 PM 40.7844 -76.1592 347° North 223 257 14,000  Level New York Center
Mon 05:16:46 PM 40.8419 -76.1803 344° North 217 250 14,000  Level New York Center
Mon 05:17:47 PM 40.8956 -76.1956 348° North 217 250 14,000  Level New York Center
Mon 05:18:47 PM 40.9550 -76.2139 347° North 222 255 14,000  Level New York Center
Mon 05:19:48 PM 41.0147 -76.2269 351° North 222 255 14,000  Level New York Center
Mon 05:20:49 PM 41.0778 -76.2183 North 216 249 14,000  Level New York Center
Mon 05:21:47 PM 41.1469 -76.2100 North 216 249 14,000  Level New York Center
Mon 05:22:48 PM 41.2072 -76.2094 360° North 216 249 14,000  Level New York Center
Mon 05:23:48 PM 41.2700 -76.2061 North 216 249 14,000  Level New York Center
Mon 05:24:46 PM 41.3267 -76.1969 North 216 249 14,000  Level New York Center
Mon 05:25:46 PM 41.3892 -76.1936 North 216 249 14,000  Level New York Center
Mon 05:26:46 PM 41.4581 -76.1936 360° North 221 254 14,000 -298 Level New York Center
Mon 05:27:47 PM 41.5189 -76.1819 North 221 254 13,400 -1,000 Descending New York Center
Mon 05:28:46 PM 41.5900 -76.1767 North 235 270 12,000 -1,438 Descending New York Center
Mon 05:29:48 PM 41.6525 -76.1761 360° North 245 282 10,500 -1,426 Descending New York Center
Mon 05:30:48 PM 41.7194 -76.1678 North 245 282 9,100 -1,339 Descending New York Center
Mon 05:31:49 PM 41.7839 -76.1700 359° North 218 251 7,800 -1,627 Descending New York Center
Mon 05:32:46 PM 41.8406 -76.1636 North 204 235 5,900 -1,744 Descending New York Center
Mon 05:33:46 PM 41.8989 -76.1600 North 204 235 4,400 -934 Descending New York Center
Mon 05:34:48 PM 41.9511 -76.1586 North 204 235 4,000 -197 Descending New York Center
Mon 05:35:48 PM 42.0181 -76.1500 North 210 242 4,000  Level New York Center
Mon 05:36:49 PM 42.0806 -76.1469 North 216 249 4,000 -153 Level New York Center
Mon 05:37:46 PM 42.1322 -76.1092 28° Northeast 206 237 3,700 -407 Descending New York Center
Mon 05:38:47 PM 42.1628 -76.0333 61° Northeast 201 231 3,200 -347 Descending New York Center
Mon 05:39:47 PM 42.2075 -76.0089 22° Northeast 177 204 3,000 -100 Descending New York Center
Mon 05:40:47 PM 42.2458 -76.0397 329° Northwest 145 167 3,000 -397 Level New York Center
Mon 05:41:48 PM 42.2389 -76.0056 105° East 54 62 2,200 -787 Descending New York Center
Mon 05:43:00 PM 42.2086 -75.9797 90° East  Level Estimated
Mon 05:50:00 PM 42.2086 -75.9797 90° East  Level Estimated
Mon 05:51:00 PM 42.2086 -75.9797 90° East  Level Estimated

Login

Don't have an account? Register now (free) for customized features, flight alerts, and more!